Time;durP1;ratioP1;P1;durP2;ratioP2;P2;SDS_P1;SDS_P2;PMS_P1;PMS_P2;Temp;Humidity;BMP_temperature;BMP_pressure;BME280_temperature;BME280_humidity;BME280_pressure;Samples;Min_cycle;Max_cycle;Signal;HPM_P1;HPM_P2
2021/01/09 00:00:06;;;;;;;13.73;11.63;;;;;;;1.28;93.11;98903.13;4928331;28;103040;-76
2021/01/09 00:02:38;;;;;;;12.43;10.80;;;;;;;1.28;93.39;98897.94;4927719;28;103132;-75
2021/01/09 00:05:07;;;;;;;14.53;10.63;;;;;;;1.39;93.23;98893.22;4926794;28;105026;-76
2021/01/09 00:07:34;;;;;;;11.50;8.53;;;;;;;1.41;92.81;98896.63;4958381;28;104857;-75
2021/01/09 00:10:04;;;;;;;9.83;7.97;;;;;;;1.49;93.16;98896.38;4923346;28;102833;-75
2021/01/09 00:12:32;;;;;;;14.03;12.10;;;;;;;1.49;92.48;98897.22;4925549;28;103345;-76
2021/01/09 00:14:59;;;;;;;12.30;9.67;;;;;;;1.49;92.85;98905.03;4929058;28;103783;-76
2021/01/09 00:17:27;;;;;;;17.87;13.37;;;;;;;1.38;92.72;98895.88;4929929;28;103328;-76
2021/01/09 00:19:54;;;;;;;14.97;11.00;;;;;;;1.41;93.37;98896.63;4930776;28;103034;-75
2021/01/09 00:22:21;;;;;;;13.77;12.13;;;;;;;1.44;92.79;98896.53;4931945;28;102766;-75
2021/01/09 00:24:48;;;;;;;11.10;9.07;;;;;;;1.55;92.97;98891.81;4929491;28;105898;-75
2021/01/09 00:27:16;;;;;;;15.33;12.60;;;;;;;1.52;93.01;98899.72;4930273;28;105203;-76
2021/01/09 00:29:45;;;;;;;14.37;11.43;;;;;;;1.51;92.70;98892.84;4928504;28;103614;-75
2021/01/09 00:32:12;;;;;;;12.77;10.17;;;;;;;1.60;92.56;98895.13;4930823;28;102974;-75
2021/01/09 00:34:40;;;;;;;19.07;13.90;;;;;;;1.55;92.14;98894.41;4930723;28;104421;-75
2021/01/09 00:37:07;;;;;;;13.77;11.27;;;;;;;1.57;93.05;98891.78;4926891;28;104342;-75
2021/01/09 00:39:35;;;;;;;17.90;13.30;;;;;;;1.33;93.21;98888.22;4911798;28;102907;-75
2021/01/09 00:42:02;;;;;;;13.33;10.43;;;;;;;1.29;93.88;98886.63;4915696;28;102653;-76
2021/01/09 00:44:30;;;;;;;17.80;13.57;;;;;;;1.28;93.31;98900.53;4930529;28;103736;-77
2021/01/09 00:46:58;;;;;;;17.40;13.07;;;;;;;1.31;93.55;98900.44;4930898;28;104179;-76
2021/01/09 00:49:26;;;;;;;13.07;10.43;;;;;;;1.45;93.04;98897.38;4932061;28;103154;-76
2021/01/09 00:51:54;;;;;;;12.20;10.03;;;;;;;1.56;93.29;98901.34;4933150;28;102960;-75
2021/01/09 00:54:21;;;;;;;16.70;13.20;;;;;;;1.54;92.70;98897.94;4928247;28;106807;-75
2021/01/09 00:56:52;;;;;;;15.57;12.27;;;;;;;1.55;92.45;98893.56;4929668;28;103755;-76
2021/01/09 00:59:19;;;;;;;16.77;13.60;;;;;;;1.31;93.17;98904.78;4930863;28;102968;-75
2021/01/09 01:01:49;;;;;;;17.50;14.00;;;;;;;1.14;94.09;98913.13;4931010;28;102693;-75
2021/01/09 01:04:17;;;;;;;15.83;12.33;;;;;;;1.26;94.75;98910.16;4930709;28;103755;-75
2021/01/09 01:06:44;;;;;;;14.63;12.63;;;;;;;1.29;93.75;98912.66;4924364;28;103797;-75
2021/01/09 01:09:12;;;;;;;15.47;12.20;;;;;;;1.32;93.96;98920.34;4926753;28;102605;-76
2021/01/09 01:11:40;;;;;;;16.93;13.20;;;;;;;1.31;94.13;98913.44;4931279;28;103053;-75
2021/01/09 01:14:08;;;;;;;16.47;13.50;;;;;;;1.24;94.32;98918.88;4928009;28;103710;-75
2021/01/09 01:16:35;;;;;;;17.60;13.83;;;;;;;1.27;94.02;98922.25;4929919;28;105015;-75
2021/01/09 01:19:03;;;;;;;17.50;13.63;;;;;;;1.36;94.24;98928.91;4927942;28;102507;-75
2021/01/09 01:21:34;;;;;;;18.13;12.80;;;;;;;1.28;94.15;98926.56;4929325;28;103266;-75
2021/01/09 01:24:02;;;;;;;18.83;14.80;;;;;;;1.26;94.36;98923.16;4930560;28;103919;-75
2021/01/09 01:26:33;;;;;;;17.97;13.90;;;;;;;1.12;94.25;98933.16;4928564;28;104067;-75
2021/01/09 01:29:00;;;;;;;16.13;14.30;;;;;;;1.05;94.55;98929.00;4930156;28;103045;-75
2021/01/09 01:31:27;;;;;;;17.53;14.83;;;;;;;1.08;94.50;98929.78;4930145;28;102645;-74
2021/01/09 01:33:55;;;;;;;18.37;14.77;;;;;;;1.10;94.71;98930.56;4929707;28;105047;-76
2021/01/09 01:36:22;;;;;;;17.87;14.57;;;;;;;1.09;95.26;98928.03;4929591;28;104044;-75
2021/01/09 01:38:50;;;;;;;18.57;13.70;;;;;;;1.16;95.18;98933.00;4896243;28;102571;-75
2021/01/09 01:41:17;;;;;;;19.60;15.03;;;;;;;1.13;95.17;98932.22;4911204;28;103154;-75
2021/01/09 01:43:45;;;;;;;18.70;15.53;;;;;;;1.07;95.30;98924.59;4909220;28;105197;-76
2021/01/09 01:46:13;;;;;;;20.47;14.80;;;;;;;1.12;95.29;98927.94;4924206;28;104933;-75
2021/01/09 01:48:41;;;;;;;18.07;14.00;;;;;;;1.24;95.00;98922.34;4929568;28;103099;-75
2021/01/09 01:51:10;;;;;;;17.80;13.47;;;;;;;1.32;94.61;98919.50;4929370;28;102890;-75
2021/01/09 01:53:37;;;;;;;12.20;10.33;;;;;;;1.36;94.14;98916.75;4929398;28;104947;-74
2021/01/09 01:56:06;;;;;;;16.60;13.13;;;;;;;1.36;93.92;98919.34;4930215;28;103802;-75
2021/01/09 01:58:33;;;;;;;14.10;10.87;;;;;;;1.34;94.15;98925.50;4929924;28;102571;-75
2021/01/09 02:01:02;;;;;;;12.63;10.53;;;;;;;1.37;93.82;98923.69;4924601;28;103428;-76
2021/01/09 02:03:30;;;;;;;15.53;12.63;;;;;;;1.46;93.93;98930.34;4929496;28;103271;-75
2021/01/09 02:06:01;;;;;;;12.90;10.00;;;;;;;1.48;93.36;98934.59;4927514;28;103666;-75
2021/01/09 02:08:34;;;;;;;14.53;10.93;;;;;;;1.54;93.05;98937.00;4926342;28;102940;-76
2021/01/09 02:11:09;;;;;;;13.63;9.30;;;;;;;1.56;93.39;98932.59;4929498;28;103279;-75
2021/01/09 02:13:44;;;;;;;13.73;10.77;;;;;;;1.58;93.07;98936.00;4927721;28;105974;-76
2021/01/09 02:16:13;;;;;;;11.73;9.77;;;;;;;1.62;92.83;98932.41;4928599;28;104280;-75
2021/01/09 02:18:41;;;;;;;18.60;13.87;;;;;;;1.54;92.45;98944.81;4929322;28;103232;-75
2021/01/09 02:21:36;;;;;;;18.00;15.07;;;;;;;1.34;94.02;98936.78;4928070;28;103244;-76
2021/01/09 02:24:11;;;;;;;16.90;14.07;;;;;;;1.33;93.12;98945.47;4929884;28;105664;-76
2021/01/09 02:26:39;;;;;;;17.00;13.60;;;;;;;1.45;93.79;98939.91;4928692;28;103695;-76
2021/01/09 02:29:07;;;;;;;19.30;13.17;;;;;;;1.54;93.75;98943.97;4929367;28;102459;-75
2021/01/09 02:31:39;;;;;;;19.13;14.07;;;;;;;1.57;93.29;98943.88;4929013;28;102903;-76
2021/01/09 02:34:10;;;;;;;14.23;10.93;;;;;;;1.58;93.65;98943.81;4928483;28;103383;-75
2021/01/09 02:36:38;;;;;;;13.23;9.83;;;;;;;1.59;93.73;98940.31;4928643;28;103697;-75
2021/01/09 02:39:05;;;;;;;12.57;8.93;;;;;;;1.61;93.11;98950.66;4929314;28;102561;-75
2021/01/09 02:41:36;;;;;;;12.67;9.47;;;;;;;1.66;93.28;98939.19;4929268;28;103130;-75
2021/01/09 02:44:08;;;;;;;18.07;13.00;;;;;;;1.64;92.98;98943.59;4928615;28;103832;-75
2021/01/09 02:46:36;;;;;;;17.93;14.10;;;;;;;1.44;93.55;98938.19;4928799;28;104996;-75
2021/01/09 02:49:03;;;;;;;17.97;14.50;;;;;;;1.36;93.99;98940.19;4929284;28;103001;-75
2021/01/09 02:51:31;;;;;;;18.53;14.43;;;;;;;1.38;94.60;98933.16;4928174;28;103371;-76
2021/01/09 02:53:58;;;;;;;18.37;14.67;;;;;;;1.20;94.82;98933.75;4928626;28;103745;-76
2021/01/09 02:56:25;;;;;;;18.53;14.50;;;;;;;1.36;94.88;98929.78;4928706;28;104761;-75
2021/01/09 02:58:52;;;;;;;17.50;13.43;;;;;;;1.34;94.58;98936.78;4927508;28;103462;-75
2021/01/09 03:01:19;;;;;;;20.00;16.60;;;;;;;1.34;94.85;98931.59;4925043;28;103013;-76
2021/01/09 03:03:46;;;;;;;19.20;15.10;;;;;;;1.30;94.78;98929.97;4924214;28;104988;-76
2021/01/09 03:06:13;;;;;;;18.17;14.53;;;;;;;1.33;94.75;98939.41;4926102;28;103729;-75
2021/01/09 03:08:40;;;;;;;19.00;14.60;;;;;;;1.36;94.80;98934.97;4928523;28;102552;-77
2021/01/09 03:11:07;;;;;;;19.33;15.63;;;;;;;1.39;94.58;98934.88;4928436;28;102648;-75
2021/01/09 03:13:34;;;;;;;19.57;15.50;;;;;;;1.34;94.92;98947.19;4927226;28;103304;-76
2021/01/09 03:16:04;;;;;;;18.33;15.23;;;;;;;1.34;94.71;98947.19;4927342;28;105083;-75
2021/01/09 03:18:31;;;;;;;18.57;14.30;;;;;;;1.26;94.67;98951.81;4909331;28;102803;-75
2021/01/09 03:20:58;;;;;;;17.20;13.37;;;;;;;1.34;95.29;98957.63;4925621;28;103428;-75
2021/01/09 03:23:25;;;;;;;13.87;10.60;;;;;;;1.47;95.14;98953.72;4934857;28;103907;-75
2021/01/09 03:25:52;;;;;;;18.27;13.20;;;;;;;1.32;95.56;98954.19;4933506;28;103734;-75
2021/01/09 03:28:19;;;;;;;18.80;13.50;;;;;;;1.33;95.18;98958.50;4927613;28;102604;-75
2021/01/09 03:30:46;;;;;;;17.47;13.50;;;;;;;1.35;94.76;98950.66;4928268;28;102717;-76
2021/01/09 03:33:15;;;;;;;17.87;14.67;;;;;;;1.37;94.60;98957.53;4926715;28;105141;-75
2021/01/09 03:35:42;;;;;;;16.97;12.87;;;;;;;1.48;95.05;98958.03;4921389;28;104806;-74
2021/01/09 03:38:09;;;;;;;16.37;12.03;;;;;;;1.54;94.72;98962.19;4909069;28;102529;-75
2021/01/09 03:40:37;;;;;;;16.83;13.40;;;;;;;1.60;95.11;98960.22;4908206;28;103740;-76
2021/01/09 03:43:04;;;;;;;19.37;14.60;;;;;;;1.49;94.48;98957.09;4909087;28;102942;-75
2021/01/09 03:45:32;;;;;;;15.87;11.53;;;;;;;1.49;94.42;98961.47;4921738;28;105137;-75
2021/01/09 03:47:58;;;;;;;19.83;14.10;;;;;;;1.45;94.07;98960.72;4928245;28;102588;-76
2021/01/09 03:50:26;;;;;;;18.83;14.77;;;;;;;1.30;94.86;98957.75;4935129;28;103260;-75
2021/01/09 03:52:54;;;;;;;22.40;16.90;;;;;;;1.27;95.89;98958.69;4927273;28;104789;-75
2021/01/09 03:55:21;;;;;;;16.33;11.83;;;;;;;1.40;96.33;98957.44;4927797;28;105232;-75
2021/01/09 03:57:48;;;;;;;18.30;13.23;;;;;;;1.38;96.02;98959.19;4928117;28;103006;-76
2021/01/09 04:00:16;;;;;;;17.53;13.73;;;;;;;1.37;95.33;98962.72;4927984;28;102667;-75
2021/01/09 04:02:43;;;;;;;14.20;10.33;;;;;;;1.47;95.47;98958.91;4926994;28;103910;-75
2021/01/09 04:05:11;;;;;;;15.50;11.77;;;;;;;1.51;95.08;98963.16;4925182;28;104655;-76
2021/01/09 04:07:38;;;;;;;22.00;15.33;;;;;;;1.56;95.64;98968.19;4926042;28;103064;-76
2021/01/09 04:10:07;;;;;;;18.90;14.87;;;;;;;1.49;95.27;98961.47;4926862;28;102727;-75
2021/01/09 04:12:34;;;;;;;18.57;14.90;;;;;;;1.40;95.14;98961.78;4923160;28;105850;-75
2021/01/09 04:15:01;;;;;;;19.23;14.47;;;;;;;1.28;95.38;98965.59;4920733;28;107109;-75
2021/01/09 04:17:28;;;;;;;18.13;13.70;;;;;;;1.07;96.94;98967.09;4908350;28;102630;-75
2021/01/09 04:19:55;;;;;;;22.70;16.17;;;;;;;1.08;96.62;98975.75;4908802;28;102643;-75
2021/01/09 04:22:22;;;;;;;22.77;15.77;;;;;;;1.14;97.30;98967.78;4924260;28;105321;-75
2021/01/09 04:24:50;;;;;;;17.17;13.07;;;;;;;1.16;97.14;98973.78;4927339;28;104306;-75
2021/01/09 04:27:17;;;;;;;23.17;17.00;;;;;;;1.12;96.60;98966.97;4927410;28;103147;-75
2021/01/09 04:29:44;;;;;;;22.77;17.03;;;;;;;0.98;97.22;98974.34;4927892;28;102733;-76
2021/01/09 04:32:11;;;;;;;20.80;15.17;;;;;;;1.04;98.21;98971.53;4926920;28;103368;-77
2021/01/09 04:34:38;;;;;;;19.93;14.30;;;;;;;1.12;97.70;98966.97;4927234;28;103691;-75
2021/01/09 04:37:06;;;;;;;16.00;11.83;;;;;;;1.15;97.58;98966.91;4922865;28;103004;-76
2021/01/09 04:39:33;;;;;;;19.17;13.37;;;;;;;1.07;98.07;98968.84;4908329;28;102734;-75
2021/01/09 04:42:01;;;;;;;19.70;14.67;;;;;;;1.12;98.32;98966.97;4915878;28;105248;-75
2021/01/09 04:44:28;;;;;;;21.23;16.93;;;;;;;1.05;98.10;98962.84;4926679;28;103672;-75
2021/01/09 04:46:58;;;;;;;23.53;17.13;;;;;;;1.04;97.61;98963.72;4926828;28;102572;-75
2021/01/09 04:49:27;;;;;;;19.00;14.23;;;;;;;1.04;98.66;98969.78;4928057;28;102815;-75
2021/01/09 04:51:55;;;;;;;19.03;14.37;;;;;;;1.10;98.23;98979.16;4928935;28;103939;-75
2021/01/09 04:54:24;;;;;;;20.40;16.43;;;;;;;1.14;97.88;98968.63;4930065;28;103329;-75
2021/01/09 04:56:53;;;;;;;24.13;17.43;;;;;;;0.98;98.16;98974.34;4929937;28;103036;-76
2021/01/09 04:59:22;;;;;;;21.13;17.17;;;;;;;1.04;98.61;98974.13;4930750;28;103243;-75
2021/01/09 05:01:51;;;;;;;21.03;17.00;;;;;;;0.97;98.11;98980.44;4928611;28;103920;-75
2021/01/09 05:04:21;;;;;;;20.73;15.63;;;;;;;1.04;98.61;98976.75;4929631;28;104794;-75
2021/01/09 05:06:48;;;;;;;25.07;16.37;;;;;;;1.03;98.42;98977.66;4917999;28;102862;-76
2021/01/09 05:09:16;;;;;;;22.50;17.47;;;;;;;0.99;98.79;98976.88;4912448;28;102974;-75
2021/01/09 05:11:46;;;;;;;22.00;17.33;;;;;;;0.97;98.52;98977.84;4927584;28;106365;-75
2021/01/09 05:14:13;;;;;;;23.27;17.73;;;;;;;1.01;98.72;98984.66;4928572;28;105231;-75
2021/01/09 05:16:41;;;;;;;26.40;17.30;;;;;;;0.91;98.55;98985.81;4930061;28;102830;-76
2021/01/09 05:19:09;;;;;;;25.80;18.13;;;;;;;0.97;99.19;98983.03;4930707;28;102612;-76
2021/01/09 05:21:38;;;;;;;19.67;15.60;;;;;;;1.07;99.06;98984.47;4928362;28;104890;-75
2021/01/09 05:24:07;;;;;;;24.43;18.30;;;;;;;1.02;98.07;98991.56;4930107;28;103233;-75
2021/01/09 05:26:35;;;;;;;21.90;16.83;;;;;;;1.06;98.49;98986.22;4928955;28;103086;-76
2021/01/09 05:29:04;;;;;;;24.97;18.60;;;;;;;0.96;97.92;98981.31;4930290;28;102955;-77
2021/01/09 05:31:35;;;;;;;22.70;16.20;;;;;;;1.07;98.58;98990.53;4929921;28;104956;-75
2021/01/09 05:34:05;;;;;;;25.77;17.50;;;;;;;1.01;98.21;98989.88;4930809;28;105296;-72
2021/01/09 05:36:33;;;;;;;22.53;17.47;;;;;;;1.00;98.40;98986.41;4927337;28;103376;-74
2021/01/09 05:39:03;;;;;;;21.70;17.00;;;;;;;0.93;98.59;98991.81;4929239;28;102613;-74
2021/01/09 05:41:30;;;;;;;20.77;14.83;;;;;;;1.04;99.17;98993.22;4929464;28;105346;-74
2021/01/09 05:43:59;;;;;;;18.73;13.30;;;;;;;1.11;98.77;98991.28;4929530;28;102636;-73
2021/01/09 05:46:29;;;;;;;23.20;16.97;;;;;;;1.17;98.44;98991.13;4929036;28;102955;-73
2021/01/09 05:48:56;;;;;;;20.60;16.10;;;;;;;1.19;98.69;98989.31;4926467;28;103005;-75
2021/01/09 05:51:31;;;;;;;26.23;18.07;;;;;;;0.93;98.40;98995.28;4926234;28;103296;-75
2021/01/09 05:53:58;;;;;;;20.00;15.73;;;;;;;1.01;98.39;98995.91;4929029;28;104922;-75
2021/01/09 05:56:25;;;;;;;24.37;17.30;;;;;;;1.17;99.27;98998.91;4930526;28;102580;-74
2021/01/09 05:58:55;;;;;;;21.63;16.77;;;;;;;1.16;98.54;98997.22;4929083;28;103286;-77
2021/01/09 06:01:26;;;;;;;21.93;17.37;;;;;;;1.15;98.14;98992.91;4928730;28;103347;-77
2021/01/09 06:03:59;;;;;;;22.70;16.50;;;;;;;1.11;97.88;98996.50;4929174;28;103736;-78
2021/01/09 06:06:46;;;;;;;19.23;15.00;;;;;;;1.23;98.60;98993.53;4931763;28;103011;-77
2021/01/09 06:09:19;;;;;;;21.77;16.73;;;;;;;1.30;98.43;98992.44;4911298;28;103037;-77
2021/01/09 06:11:48;;;;;;;21.77;17.50;;;;;;;1.28;98.30;98999.44;4918291;28;103736;-78
2021/01/09 06:14:16;;;;;;;24.00;16.77;;;;;;;1.18;98.37;98998.84;4929424;28;103808;-79
2021/01/09 06:16:44;;;;;;;23.73;17.83;;;;;;;1.26;99.05;98996.03;4927270;28;102957;-77
2021/01/09 06:19:11;;;;;;;24.77;17.43;;;;;;;1.22;97.92;99003.97;4928687;28;103156;-77
2021/01/09 06:21:39;;;;;;;21.53;15.07;;;;;;;1.27;98.36;99002.94;4926357;28;103882;-77
2021/01/09 06:24:07;;;;;;;24.90;16.33;;;;;;;1.22;98.48;98999.63;4928905;28;104816;-76
2021/01/09 06:26:34;;;;;;;24.17;16.93;;;;;;;1.20;98.05;99011.84;4928655;28;102935;-77
2021/01/09 06:29:18;;;;;;;24.47;18.40;;;;;;;1.30;98.26;99008.06;4928113;28;102705;-75
2021/01/09 06:31:51;;;;;;;21.73;14.33;;;;;;;1.31;97.85;99001.09;4911550;28;104898;-77
2021/01/09 06:34:19;;;;;;;21.00;14.73;;;;;;;1.34;98.23;99014.03;4927140;28;103693;-76
2021/01/09 06:36:53;;;;;;;16.93;12.50;;;;;;;1.39;97.91;99019.94;4925839;28;102877;-76
2021/01/09 06:39:20;;;;;;;23.03;17.40;;;;;;;1.16;97.59;99025.84;4916329;28;102617;-77
2021/01/09 06:41:51;;;;;;;23.53;16.87;;;;;;;1.20;98.25;99024.00;4927475;28;104868;-77
2021/01/09 06:44:21;;;;;;;20.50;15.43;;;;;;;1.22;98.64;99015.25;4929102;28;104820;-80
2021/01/09 06:46:50;;;;;;;23.17;17.30;;;;;;;1.28;98.56;99024.63;4920997;28;103085;-77
2021/01/09 06:49:18;;;;;;;21.23;16.13;;;;;;;1.28;97.89;99019.41;4926187;28;104297;-77
2021/01/09 06:51:57;;;;;;;19.17;13.50;;;;;;;1.38;97.89;99032.09;4927551;28;104952;-80
2021/01/09 06:54:27;;;;;;;19.13;13.83;;;;;;;1.31;97.81;99025.38;4929374;28;103686;-78
2021/01/09 06:57:19;;;;;;;24.77;18.07;;;;;;;1.09;98.83;99019.97;4927804;28;102709;-79
2021/01/09 06:59:48;;;;;;;26.73;19.10;;;;;;;1.06;99.85;99027.00;4928506;28;103030;-78
2021/01/09 07:02:20;;;;;;;26.27;18.53;;;;;;;1.00;100.00;99022.84;4929799;28;105397;-80
2021/01/09 07:04:59;;;;;;;26.37;18.67;;;;;;;0.89;100.00;99026.63;4927270;28;104775;-76
2021/01/09 07:07:29;;;;;;;24.23;17.50;;;;;;;1.02;100.00;99027.97;4934047;28;103228;-88
2021/01/09 07:12:33;;;;;;;27.20;19.80;;;;;;;0.85;100.00;99019.81;4851022;29;104292;-75
2021/01/09 07:15:06;;;;;;;31.03;20.17;;;;;;;0.74;100.00;99040.06;4851379;29;104782;-77
2021/01/09 07:17:38;;;;;;;24.43;17.53;;;;;;;1.03;100.00;99033.16;4852147;29;102989;-77
2021/01/09 07:20:08;;;;;;;24.00;15.97;;;;;;;1.15;100.00;99042.38;4851984;29;102750;-77
2021/01/09 07:22:39;;;;;;;27.23;19.53;;;;;;;1.08;100.00;99043.44;4851136;29;103368;-77
2021/01/09 07:25:09;;;;;;;28.63;20.57;;;;;;;0.97;100.00;99046.34;4849290;29;103662;-77
2021/01/09 07:27:42;;;;;;;27.77;20.30;;;;;;;1.06;100.00;99035.69;4845706;29;102984;-77
2021/01/09 07:30:15;;;;;;;25.60;18.63;;;;;;;1.05;100.00;99048.72;4853133;29;102976;-77
2021/01/09 07:32:47;;;;;;;26.90;19.10;;;;;;;1.08;100.00;99048.63;4851551;29;104546;-77
2021/01/09 07:35:21;;;;;;;29.87;20.30;;;;;;;0.93;100.00;99039.50;4851825;28;103535;-77
2021/01/09 07:37:52;;;;;;;29.10;20.03;;;;;;;1.07;100.00;99041.72;4856629;28;102529;-77
2021/01/09 07:40:21;;;;;;;29.00;20.77;;;;;;;1.08;100.00;99048.63;4872104;28;103402;-78
2021/01/09 07:42:50;;;;;;;34.07;22.70;;;;;;;0.84;100.00;99044.97;4837771;29;104329;-77
2021/01/09 07:45:19;;;;;;;27.63;20.13;;;;;;;0.93;100.00;99046.44;4833463;29;104997;-78
2021/01/09 07:47:47;;;;;;;32.27;22.70;;;;;;;1.02;100.00;99051.41;4833568;29;102522;-77
2021/01/09 07:50:17;;;;;;;27.00;17.07;;;;;;;1.07;100.00;99046.91;4842301;29;102976;-77
2021/01/09 07:52:45;;;;;;;28.53;20.93;;;;;;;1.13;100.00;99057.16;4851129;29;105169;-77
2021/01/09 07:55:18;;;;;;;31.23;20.97;;;;;;;1.09;100.00;99059.00;4851473;29;104958;-77
2021/01/09 07:57:46;;;;;;;33.33;23.77;;;;;;;0.99;100.00;99064.50;4847032;28;102527;-77
2021/01/09 08:00:16;;;;;;;31.47;22.50;;;;;;;0.81;100.00;99062.41;4852026;28;102460;-80
2021/01/09 08:02:46;;;;;;;34.17;22.60;;;;;;;0.79;100.00;99061.59;4851461;29;104300;-76
2021/01/09 08:05:16;;;;;;;34.20;24.27;;;;;;;0.73;100.00;99069.59;4833909;29;103786;-75
2021/01/09 08:07:45;;;;;;;36.07;23.80;;;;;;;0.74;100.00;99073.88;4831909;29;102519;-76
2021/01/09 08:10:18;;;;;;;30.77;20.23;;;;;;;1.09;100.00;99078.97;4848799;28;102730;-75
2021/01/09 08:12:46;;;;;;;31.57;19.23;;;;;;;1.16;100.00;99083.09;4850593;28;104257;-76
2021/01/09 08:15:13;;;;;;;32.27;23.00;;;;;;;1.02;100.00;99090.44;4845642;28;103253;-76
2021/01/09 08:17:41;;;;;;;33.03;22.80;;;;;;;1.17;100.00;99084.81;4835064;29;102595;-74
2021/01/09 08:20:10;;;;;;;31.67;23.57;;;;;;;1.08;100.00;99090.25;4837218;29;103278;-74
2021/01/09 08:22:38;;;;;;;34.23;23.97;;;;;;;1.01;100.00;99088.75;4849571;28;103706;-74
2021/01/09 08:25:10;;;;;;;33.00;23.37;;;;;;;0.99;100.00;99098.31;4859853;28;105088;-78
2021/01/09 08:27:50;;;;;;;34.97;24.57;;;;;;;0.85;100.00;99098.69;4857058;28;102893;-74
2021/01/09 08:30:19;;;;;;;35.03;25.00;;;;;;;0.82;100.00;99097.94;4852813;29;103185;-74
2021/01/09 08:33:02;;;;;;;30.47;21.00;;;;;;;0.93;100.00;99103.69;4840974;29;105076;-75
2021/01/09 08:35:29;;;;;;;29.83;20.10;;;;;;;1.03;100.00;99108.63;4848607;29;103642;-75
2021/01/09 08:37:57;;;;;;;33.57;22.30;;;;;;;1.02;100.00;99106.03;4856807;28;104056;-74
2021/01/09 08:40:25;;;;;;;36.70;24.43;;;;;;;1.10;100.00;99104.94;4869486;28;103082;-75
2021/01/09 08:43:05;;;;;;;34.13;24.60;;;;;;;1.05;100.00;99111.16;4859611;28;103812;-75
2021/01/09 08:45:44;;;;;;;35.57;24.83;;;;;;;0.95;100.00;99110.59;4853452;29;105165;-75
2021/01/09 08:48:14;;;;;;;32.27;23.60;;;;;;;0.80;100.00;99097.97;4852145;29;103117;-75
2021/01/09 08:50:57;;;;;;;36.53;24.93;;;;;;;0.90;100.00;99106.41;4848750;29;103083;-75
2021/01/09 08:53:31;;;;;;;35.80;24.10;;;;;;;0.93;100.00;99106.28;4847789;29;105485;-74
2021/01/09 08:56:02;;;;;;;33.63;24.27;;;;;;;0.86;100.00;99118.63;4851788;29;106114;-75
2021/01/09 08:58:34;;;;;;;29.77;21.00;;;;;;;0.80;100.00;99110.13;4853414;28;103081;-74
2021/01/09 09:01:04;;;;;;;29.63;20.73;;;;;;;0.79;100.00;99121.41;4867400;28;103427;-74
2021/01/09 09:03:33;;;;;;;31.20;22.30;;;;;;;0.76;100.00;99117.16;4850076;29;103333;-75
2021/01/09 09:06:07;;;;;;;25.70;19.30;;;;;;;0.66;100.00;99115.69;4846147;29;104820;-75
2021/01/09 09:08:35;;;;;;;25.17;17.77;;;;;;;0.66;99.11;99112.22;4852880;29;103274;-75
2021/01/09 09:11:03;;;;;;;24.07;17.80;;;;;;;0.72;99.00;99122.47;4857000;28;102758;-75
2021/01/09 09:13:31;;;;;;;24.40;17.27;;;;;;;0.65;97.79;99126.16;4850618;29;104821;-75
2021/01/09 09:16:15;;;;;;;29.07;19.23;;;;;;;0.77;97.90;99125.81;4851652;29;102867;-75
2021/01/09 09:18:43;;;;;;;30.97;20.33;;;;;;;0.87;97.78;99125.53;4853784;29;103071;-75
2021/01/09 09:21:10;;;;;;;27.90;20.20;;;;;;;1.11;98.53;99126.63;4852899;29;103216;-75
2021/01/09 09:23:38;;;;;;;27.03;17.80;;;;;;;1.55;96.88;99136.63;4852113;29;103791;-74
2021/01/09 09:26:08;;;;;;;23.17;17.97;;;;;;;1.16;95.94;99140.34;4865835;28;107108;-75
2021/01/09 09:28:49;;;;;;;23.40;17.50;;;;;;;1.09;96.19;99141.44;4851803;28;102589;-75
2021/01/09 09:31:19;;;;;;;22.20;15.80;;;;;;;1.45;94.96;99148.22;4851828;29;103766;-76
2021/01/09 09:34:04;;;;;;;23.90;17.80;;;;;;;1.45;94.18;99137.78;4850078;29;104356;-75
2021/01/09 09:36:33;;;;;;;22.30;15.57;;;;;;;1.16;93.81;99150.75;4863240;28;104711;-75
2021/01/09 09:39:14;;;;;;;22.77;16.37;;;;;;;1.13;93.93;99148.25;4851420;28;103246;-74
2021/01/09 09:41:52;;;;;;;22.40;15.87;;;;;;;1.25;94.02;99147.91;4847767;29;103233;-75
2021/01/09 09:44:20;;;;;;;20.60;15.67;;;;;;;1.24;94.20;99148.78;4851742;29;105483;-74
2021/01/09 09:46:51;;;;;;;19.80;15.57;;;;;;;1.26;94.26;99152.22;4849103;29;103239;-75
2021/01/09 09:49:18;;;;;;;19.93;15.47;;;;;;;1.05;93.46;99152.81;4852555;29;102615;-76
2021/01/09 09:51:46;;;;;;;17.80;13.63;;;;;;;1.28;94.47;99158.25;4851255;29;102736;-77
2021/01/09 09:54:13;;;;;;;22.80;15.97;;;;;;;1.39;92.42;99169.22;4867102;28;103738;-78
2021/01/09 09:56:41;;;;;;;22.60;17.37;;;;;;;1.03;93.35;99155.47;4850578;28;104351;-77
2021/01/09 09:59:10;;;;;;;23.43;16.30;;;;;;;1.01;93.48;99156.41;4851969;28;102996;-76
2021/01/09 10:01:38;;;;;;;22.60;16.37;;;;;;;0.96;93.54;99163.44;4850823;29;102691;-76
2021/01/09 10:04:11;;;;;;;25.30;19.27;;;;;;;1.05;93.51;99158.00;4850115;29;105005;-77
2021/01/09 10:06:39;;;;;;;20.70;16.07;;;;;;;1.56;94.24;99158.31;4848936;29;103632;-76
2021/01/09 10:09:15;;;;;;;21.20;16.37;;;;;;;1.76;91.47;99150.78;4852921;28;102576;-75
2021/01/09 10:11:42;;;;;;;22.67;16.77;;;;;;;1.41;93.27;99157.00;4843866;28;103084;-77
2021/01/09 10:14:25;;;;;;;20.43;16.17;;;;;;;1.33;92.52;99145.94;4854684;29;104330;-77
2021/01/09 10:16:52;;;;;;;22.03;16.27;;;;;;;1.59;92.72;99145.19;4854835;29;104777;-77
2021/01/09 10:19:28;;;;;;;21.37;16.07;;;;;;;1.27;91.95;99143.50;4855570;28;102605;-76
2021/01/09 10:21:55;;;;;;;22.33;16.53;;;;;;;1.28;94.57;99147.81;4853724;29;103760;-79
2021/01/09 10:24:22;;;;;;;22.30;15.93;;;;;;;1.36;93.76;99145.84;4853708;29;103896;-77
2021/01/09 10:26:49;;;;;;;22.90;16.87;;;;;;;1.27;94.01;99143.50;4852802;28;103774;-75
2021/01/09 10:29:16;;;;;;;22.93;16.40;;;;;;;1.02;93.38;99143.34;4851900;28;102489;-74
2021/01/09 10:31:43;;;;;;;21.50;15.60;;;;;;;1.10;93.12;99145.72;4852451;29;102904;-76
2021/01/09 10:34:11;;;;;;;22.53;16.33;;;;;;;1.70;92.80;99150.94;4852297;28;103720;-76
2021/01/09 10:36:39;;;;;;;20.00;14.70;;;;;;;1.77;91.07;99148.09;4852134;29;105072;-76
2021/01/09 10:39:08;;;;;;;21.13;16.27;;;;;;;1.71;91.18;99150.88;4854521;28;103054;-75
2021/01/09 10:41:35;;;;;;;22.77;17.03;;;;;;;1.47;91.35;99151.63;4834476;29;102892;-76
2021/01/09 10:44:04;;;;;;;19.70;14.10;;;;;;;1.54;90.56;99137.53;4836933;29;103867;-80
2021/01/09 10:46:32;;;;;;;20.50;14.90;;;;;;;1.84;89.89;99146.19;4848137;29;103184;-77
2021/01/09 10:49:00;;;;;;;20.73;15.40;;;;;;;2.15;89.55;99143.47;4849846;29;103014;-79
2021/01/09 10:51:29;;;;;;;20.30;15.03;;;;;;;2.20;87.56;99146.78;4851533;28;102747;-74
2021/01/09 10:53:57;;;;;;;20.80;15.77;;;;;;;1.91;89.78;99147.69;4850478;29;104975;-74
2021/01/09 10:56:24;;;;;;;18.60;14.33;;;;;;;1.79;88.77;99139.41;4847996;29;104545;-75
2021/01/09 10:58:52;;;;;;;18.17;12.30;;;;;;;1.79;86.63;99139.41;4848150;29;102585;-74
2021/01/09 11:01:21;;;;;;;14.90;12.17;;;;;;;2.27;87.04;99140.50;4848949;29;104466;-75
2021/01/09 11:03:48;;;;;;;14.27;11.17;;;;;;;2.16;83.82;99143.41;4847069;29;103338;-75
2021/01/09 11:06:23;;;;;;;13.33;11.00;;;;;;;1.77;85.31;99142.88;4847436;29;105251;-75
2021/01/09 11:08:50;;;;;;;12.47;10.33;;;;;;;1.79;84.90;99144.59;4851352;29;102610;-75
2021/01/09 11:11:19;;;;;;;13.73;11.20;;;;;;;1.65;85.90;99151.09;4849955;28;103365;-76
2021/01/09 11:13:47;;;;;;;15.23;11.10;;;;;;;2.08;85.89;99139.34;4850856;28;104953;-75
2021/01/09 11:16:18;;;;;;;14.27;11.43;;;;;;;2.30;84.22;99140.41;4851271;28;103856;-76
2021/01/09 11:18:46;;;;;;;15.57;11.17;;;;;;;1.92;84.36;99144.19;4849521;29;103074;-75
2021/01/09 11:21:14;;;;;;;14.07;11.20;;;;;;;1.89;85.36;99148.63;4850962;29;103438;-76
2021/01/09 11:23:42;;;;;;;13.90;11.00;;;;;;;1.68;84.28;99150.97;4832700;29;104008;-75
2021/01/09 11:26:09;;;;;;;15.33;11.20;;;;;;;1.41;84.94;99149.19;4832800;29;104914;-75
2021/01/09 11:28:38;;;;;;;13.63;11.10;;;;;;;2.11;84.41;99150.53;4962741;23;102753;-79